Time,TemperatureF,DewpointF,PressureIn,WindDirection,WindDirectionDegrees,WindSpeedMPH,WindSpeedGustMPH,Humidity,HourlyPrecipIn,Conditions,Clouds,dailyrainin,SolarRadiationWatts/m^2,SoftwareType,DateUTC
2013-05-15 00:21:00,50.0,27.0,-100.00,ESE,116,5.0,7.0,41,0.00,,,0.00,0.000000,,2013-05-15 06:21:00,
2013-05-15 00:31:00,50.0,27.0,-100.00,ESE,116,5.0,7.0,41,0.00,,,0.00,0.000000,,2013-05-15 06:31:00,
2013-05-15 00:41:00,50.0,27.0,-100.00,ESE,116,5.0,7.0,41,0.00,,,0.00,0.000000,,2013-05-15 06:41:00,
2013-05-15 00:51:00,50.0,27.0,-100.00,ESE,116,5.0,7.0,41,0.00,,,0.00,0.000000,,2013-05-15 06:51:00,
2013-05-15 01:21:00,48.0,29.0,-100.00,WSW,255,3.0,6.0,48,0.00,,,0.00,0.000000,,2013-05-15 07:21:00,
2013-05-15 01:32:00,48.0,29.0,-100.00,WSW,255,3.0,6.0,48,0.00,,,0.00,0.000000,,2013-05-15 07:32:00,
2013-05-15 01:41:00,48.0,29.0,-100.00,WSW,255,3.0,6.0,48,0.00,,,0.00,0.000000,,2013-05-15 07:41:00,
2013-05-15 01:52:00,48.0,29.0,-100.00,WSW,255,3.0,6.0,48,0.00,,,0.00,0.000000,,2013-05-15 07:52:00,
2013-05-15 02:21:00,50.0,28.0,-100.00,SSW,210,6.0,8.0,43,0.00,,,-99.99,1.000000,,2013-05-15 08:21:00,
2013-05-15 02:32:00,50.0,28.0,-100.00,SSW,210,6.0,8.0,43,0.00,,,-99.99,1.000000,,2013-05-15 08:32:00,
2013-05-15 02:42:00,50.0,28.0,-100.00,SSW,210,6.0,8.0,43,0.00,,,-99.99,1.000000,,2013-05-15 08:42:00,
2013-05-15 02:52:00,50.0,28.0,-100.00,SSW,210,6.0,8.0,43,0.00,,,-99.99,1.000000,,2013-05-15 08:52:00,
2013-05-15 03:21:00,48.0,30.0,-100.00,North,8,5.0,11.0,49,0.00,,,0.00,0.000000,,2013-05-15 09:21:00,
2013-05-15 03:32:00,48.0,30.0,-100.00,North,8,5.0,11.0,49,0.00,,,0.00,0.000000,,2013-05-15 09:32:00,
2013-05-15 03:42:00,48.0,30.0,-100.00,North,8,5.0,11.0,49,0.00,,,0.00,0.000000,,2013-05-15 09:42:00,
2013-05-15 03:53:00,48.0,30.0,-100.00,North,8,5.0,11.0,49,0.00,,,0.00,0.000000,,2013-05-15 09:53:00,
2013-05-15 04:22:00,48.0,29.0,-100.00,NE,40,3.0,8.0,48,0.00,,,0.00,0.000000,,2013-05-15 10:22:00,
2013-05-15 04:32:00,48.0,29.0,-100.00,NE,40,3.0,8.0,48,0.00,,,0.00,0.000000,,2013-05-15 10:32:00,
2013-05-15 04:42:00,48.0,29.0,-100.00,NE,40,3.0,8.0,48,0.00,,,0.00,0.000000,,2013-05-15 10:42:00,
2013-05-15 04:52:00,48.0,29.0,-100.00,NE,40,3.0,8.0,48,0.00,,,0.00,0.000000,,2013-05-15 10:52:00,
2013-05-15 05:26:00,47.0,28.0,-100.00,South,170,1.0,4.0,48,0.00,,,0.00,0.000000,,2013-05-15 11:26:00,
2013-05-15 05:53:00,47.0,28.0,-100.00,South,170,1.0,4.0,48,0.00,,,0.00,0.000000,,2013-05-15 11:53:00,
2013-05-15 06:26:00,49.0,30.0,-100.00,East,96,2.0,3.0,47,0.00,,,0.00,1.000000,,2013-05-15 12:26:00,
2013-05-15 06:35:00,49.0,30.0,-100.00,East,96,2.0,3.0,47,0.00,,,0.00,1.000000,,2013-05-15 12:35:00,
2013-05-15 06:53:00,49.0,30.0,-100.00,East,96,2.0,3.0,47,0.00,,,0.00,1.000000,,2013-05-15 12:53:00,
2013-05-15 07:24:00,51.0,29.0,-100.00,East,92,3.0,5.0,43,0.00,,,0.00,29.000000,,2013-05-15 13:24:00,
2013-05-15 07:35:00,51.0,29.0,-100.00,East,92,3.0,5.0,43,0.00,,,0.00,29.000000,,2013-05-15 13:35:00,
2013-05-15 07:45:00,51.0,29.0,-100.00,East,92,3.0,5.0,43,0.00,,,0.00,29.000000,,2013-05-15 13:45:00,
2013-05-15 07:53:00,51.0,29.0,-100.00,East,92,3.0,5.0,43,0.00,,,0.00,29.000000,,2013-05-15 13:53:00,
2013-05-15 09:26:00,56.0,31.0,-100.00,SSE,149,5.0,6.0,39,-99.99,,,-99.99,362.000000,,2013-05-15 15:26:00,
2013-05-15 09:35:00,56.0,31.0,-100.00,SSE,149,5.0,6.0,39,-99.99,,,-99.99,362.000000,,2013-05-15 15:35:00,
2013-05-15 09:45:00,56.0,31.0,-100.00,SSE,149,5.0,6.0,39,-99.99,,,-99.99,362.000000,,2013-05-15 15:45:00,
2013-05-15 10:27:00,60.0,33.0,-100.00,South,187,5.0,7.0,36,0.00,,,0.00,557.000000,,2013-05-15 16:27:00,
2013-05-15 10:34:00,60.0,33.0,-100.00,South,187,5.0,7.0,36,0.00,,,0.00,557.000000,,2013-05-15 16:34:00,
2013-05-15 10:52:00,60.0,33.0,-100.00,South,187,5.0,7.0,36,0.00,,,0.00,557.000000,,2013-05-15 16:52:00,
2013-05-15 11:26:00,56.0,33.0,-100.00,SW,216,9.0,12.0,41,0.00,,,0.00,616.000000,,2013-05-15 17:26:00,
2013-05-15 11:34:00,56.0,33.0,-100.00,SW,216,9.0,12.0,41,0.00,,,0.00,616.000000,,2013-05-15 17:34:00,
2013-05-15 11:44:00,56.0,33.0,-100.00,SW,216,9.0,12.0,41,0.00,,,0.00,616.000000,,2013-05-15 17:44:00,
2013-05-15 11:53:00,56.0,33.0,-100.00,SW,216,9.0,12.0,41,0.00,,,0.00,616.000000,,2013-05-15 17:53:00,
2013-05-15 12:35:00,58.0,30.0,-100.00,ESE,113,5.0,13.0,34,0.00,,,0.00,313.000000,,2013-05-15 18:35:00,
2013-05-15 12:46:00,58.0,30.0,-100.00,ESE,113,5.0,13.0,34,0.00,,,0.00,313.000000,,2013-05-15 18:46:00,
2013-05-15 12:54:00,58.0,30.0,-100.00,ESE,113,5.0,13.0,34,0.00,,,0.00,313.000000,,2013-05-15 18:54:00,
2013-05-15 13:27:00,56.0,28.0,-100.00,NE,51,7.0,14.0,34,0.00,,,0.00,709.000000,,2013-05-15 19:27:00,
2013-05-15 13:35:00,56.0,28.0,-100.00,NE,51,7.0,14.0,34,0.00,,,0.00,709.000000,,2013-05-15 19:35:00,
2013-05-15 13:43:00,56.0,28.0,-100.00,NE,51,7.0,14.0,34,0.00,,,0.00,709.000000,,2013-05-15 19:43:00,
2013-05-15 13:53:00,56.0,28.0,-100.00,NE,51,7.0,14.0,34,0.00,,,0.00,709.000000,,2013-05-15 19:53:00,
2013-05-15 14:25:00,54.0,30.0,-100.00,NNW,342,9.0,15.0,39,0.00,,,0.00,334.000000,,2013-05-15 20:25:00,
2013-05-15 14:52:00,54.0,30.0,-100.00,NNW,342,9.0,15.0,39,0.00,,,0.00,334.000000,,2013-05-15 20:52:00,
2013-05-15 15:26:00,53.0,31.0,-100.00,North,5,6.0,16.0,43,0.00,,,0.00,279.000000,,2013-05-15 21:26:00,
2013-05-15 15:38:00,53.0,31.0,-100.00,North,5,6.0,16.0,43,0.00,,,0.00,279.000000,,2013-05-15 21:38:00,
2013-05-15 15:46:00,53.0,31.0,-100.00,North,5,6.0,16.0,43,0.00,,,0.00,279.000000,,2013-05-15 21:46:00,
2013-05-15 15:54:00,53.0,31.0,-100.00,North,5,6.0,16.0,43,0.00,,,0.00,279.000000,,2013-05-15 21:54:00,
2013-05-15 16:27:00,48.0,34.0,-100.00,North,1,14.0,23.0,59,0.00,,,0.00,368.000000,,2013-05-15 22:27:00,
2013-05-15 16:36:00,48.0,34.0,-100.00,North,1,14.0,23.0,59,0.00,,,0.00,368.000000,,2013-05-15 22:36:00,
2013-05-15 16:46:00,48.0,34.0,-100.00,North,1,14.0,23.0,59,0.00,,,0.00,368.000000,,2013-05-15 22:46:00,
2013-05-15 16:53:00,48.0,34.0,-100.00,North,1,14.0,23.0,59,0.00,,,0.00,368.000000,,2013-05-15 22:53:00,
2013-05-15 17:26:00,50.0,35.0,-100.00,North,2,14.0,25.0,57,0.00,,,0.00,515.000000,,2013-05-15 23:26:00,
2013-05-15 17:45:00,50.0,35.0,-100.00,North,2,14.0,25.0,57,0.00,,,0.00,515.000000,,2013-05-15 23:45:00,
2013-05-15 17:52:00,50.0,35.0,-100.00,North,2,14.0,25.0,57,0.00,,,0.00,515.000000,,2013-05-15 23:52:00,
2013-05-15 18:25:00,50.0,34.0,-100.00,NE,41,8.0,23.0,53,0.00,,,0.00,366.000000,,2013-05-16 00:25:00,
2013-05-15 18:35:00,50.0,34.0,-100.00,NE,41,8.0,23.0,53,0.00,,,0.00,366.000000,,2013-05-16 00:35:00,
2013-05-15 18:45:00,50.0,34.0,-100.00,NE,41,8.0,23.0,53,0.00,,,0.00,366.000000,,2013-05-16 00:45:00,
2013-05-15 18:52:00,50.0,34.0,-100.00,NE,41,8.0,23.0,53,0.00,,,0.00,366.000000,,2013-05-16 00:52:00,
2013-05-15 19:26:00,51.0,33.0,-100.00,ENE,66,7.0,17.0,50,0.00,,,0.00,289.000000,,2013-05-16 01:26:00,
2013-05-15 19:35:00,51.0,33.0,-100.00,ENE,66,7.0,17.0,50,0.00,,,0.00,289.000000,,2013-05-16 01:35:00,
2013-05-15 19:46:00,51.0,33.0,-100.00,ENE,66,7.0,17.0,50,0.00,,,0.00,289.000000,,2013-05-16 01:46:00,
2013-05-15 19:53:00,51.0,33.0,-100.00,ENE,66,7.0,17.0,50,0.00,,,0.00,289.000000,,2013-05-16 01:53:00,
2013-05-15 20:26:00,48.0,34.0,-100.00,SSE,164,6.0,17.0,57,0.00,,,0.00,18.000000,,2013-05-16 02:26:00,
2013-05-15 20:36:00,48.0,34.0,-100.00,SSE,164,6.0,17.0,57,0.00,,,0.00,18.000000,,2013-05-16 02:36:00,
2013-05-15 20:43:00,48.0,34.0,-100.00,SSE,164,6.0,17.0,57,0.00,,,0.00,18.000000,,2013-05-16 02:43:00,
2013-05-15 20:51:00,48.0,34.0,-100.00,SSE,164,6.0,17.0,57,0.00,,,0.00,18.000000,,2013-05-16 02:51:00,
2013-05-15 21:24:00,44.0,37.0,-100.00,NE,50,3.0,24.0,75,0.01,,,0.01,1.000000,,2013-05-16 03:24:00,
2013-05-15 21:34:00,44.0,37.0,-100.00,NE,50,3.0,24.0,75,0.01,,,0.01,1.000000,,2013-05-16 03:34:00,
2013-05-15 21:44:00,44.0,37.0,-100.00,NE,50,3.0,24.0,75,0.01,,,0.01,1.000000,,2013-05-16 03:44:00,
2013-05-15 21:54:00,44.0,37.0,-100.00,NE,50,3.0,24.0,75,0.01,,,0.01,1.000000,,2013-05-16 03:54:00,
2013-05-15 22:23:00,43.0,35.0,-100.00,NNE,23,8.0,13.0,74,0.00,,,0.01,0.000000,,2013-05-16 04:23:00,
2013-05-15 22:33:00,43.0,35.0,-100.00,NNE,23,8.0,13.0,74,0.00,,,0.01,0.000000,,2013-05-16 04:33:00,
2013-05-15 22:42:00,43.0,35.0,-100.00,NNE,23,8.0,13.0,74,0.00,,,0.01,0.000000,,2013-05-16 04:42:00,
2013-05-15 22:52:00,43.0,35.0,-100.00,NNE,23,8.0,13.0,74,0.00,,,0.01,0.000000,,2013-05-16 04:52:00,
2013-05-15 23:22:00,43.0,35.0,-100.00,North,10,8.0,14.0,72,0.00,,,0.01,0.000000,,2013-05-16 05:22:00,
2013-05-15 23:32:00,43.0,35.0,-100.00,North,10,8.0,14.0,72,0.00,,,0.01,0.000000,,2013-05-16 05:32:00,
2013-05-15 23:42:00,43.0,35.0,-100.00,North,10,8.0,14.0,72,0.00,,,0.01,0.000000,,2013-05-16 05:42:00,
2013-05-15 23:52:00,43.0,35.0,-100.00,North,10,8.0,14.0,72,0.00,,,0.01,0.000000,,2013-05-16 05:52:00,